createdAt,value
2019-05-13T00:00:44.807Z,97.60
2019-05-13T00:02:50.556Z,97.80
2019-05-13T00:04:56.315Z,98.20
2019-05-13T00:07:01.525Z,98.20
2019-05-13T00:09:08.107Z,98.30
2019-05-13T00:11:14.212Z,98.60
2019-05-13T00:13:23.572Z,98.70
2019-05-13T00:15:28.492Z,98.80
2019-05-13T00:17:33.843Z,99.00
2019-05-13T00:19:39.670Z,99.30
2019-05-13T00:21:44.983Z,99.60
2019-05-13T00:23:50.256Z,99.80
2019-05-13T00:25:55.613Z,99.80
2019-05-13T00:28:03.782Z,99.90
2019-05-13T00:30:08.693Z,99.90
2019-05-13T00:32:13.998Z,99.90
2019-05-13T00:34:19.439Z,99.90
2019-05-13T00:36:24.779Z,99.90
2019-05-13T00:38:30.062Z,99.90
2019-05-13T00:40:35.711Z,99.90
2019-05-13T00:42:41.058Z,99.90
2019-05-13T00:44:46.673Z,99.90
2019-05-13T00:46:53.753Z,99.90
2019-05-13T00:48:58.920Z,99.90
2019-05-13T00:51:04.333Z,99.90
2019-05-13T00:53:09.781Z,99.90
2019-05-13T00:55:15.088Z,99.90
2019-05-13T00:57:20.476Z,99.90
2019-05-13T00:59:25.921Z,99.90
2019-05-13T01:01:33.528Z,99.90
2019-05-13T01:03:38.812Z,99.90
2019-05-13T01:05:44.681Z,99.90
2019-05-13T01:07:53.543Z,99.90
2019-05-13T01:09:57.877Z,99.90
2019-05-13T01:12:04.402Z,99.90
2019-05-13T01:14:10.093Z,99.90
2019-05-13T01:16:15.268Z,99.90
2019-05-13T01:18:20.524Z,99.90
2019-05-13T01:20:25.887Z,99.90
2019-05-13T01:22:31.261Z,99.90
2019-05-13T01:24:36.519Z,99.90
2019-05-13T01:26:43.832Z,99.90
2019-05-13T01:28:48.811Z,99.90
2019-05-13T01:30:54.154Z,99.90
2019-05-13T01:32:59.481Z,99.90
2019-05-13T01:35:05.287Z,99.90
2019-05-13T01:37:13.232Z,99.90
2019-05-13T01:39:18.613Z,99.90
2019-05-13T01:41:24.133Z,99.90
2019-05-13T01:43:33.415Z,99.90
2019-05-13T01:45:38.330Z,99.90
2019-05-13T01:47:44.872Z,99.90
2019-05-13T01:49:50.114Z,99.90
2019-05-13T01:51:55.771Z,99.90
2019-05-13T01:54:03.951Z,99.90
2019-05-13T01:56:10.597Z,99.90
2019-05-13T01:58:15.859Z,99.90
2019-05-13T02:00:21.314Z,99.90
2019-05-13T02:02:26.543Z,99.90
2019-05-13T02:04:33.626Z,99.90
2019-05-13T02:06:38.909Z,99.90
2019-05-13T02:08:44.192Z,99.90
2019-05-13T02:10:54.391Z,99.90
2019-05-13T02:12:59.926Z,99.90
2019-05-13T02:15:05.345Z,99.90
2019-05-13T02:17:10.781Z,99.90
2019-05-13T02:19:16.190Z,99.90
2019-05-13T02:21:23.943Z,99.90
2019-05-13T02:23:28.752Z,99.90
2019-05-13T02:25:34.206Z,99.90
2019-05-13T02:27:39.534Z,99.90
2019-05-13T02:29:45.368Z,99.90
2019-05-13T02:31:55.889Z,99.90
2019-05-13T02:34:02.210Z,99.90
2019-05-13T02:36:05.878Z,99.90
2019-05-13T02:38:19.503Z,99.90
2019-05-13T02:40:18.568Z,99.90
2019-05-13T02:42:23.951Z,99.90
2019-05-13T02:44:29.214Z,99.90
2019-05-13T02:46:34.656Z,99.90
2019-05-13T02:48:42.195Z,99.90
2019-05-13T02:50:47.041Z,99.90
2019-05-13T02:52:53.220Z,99.90
2019-05-13T02:54:58.630Z,99.90
2019-05-13T02:57:04.419Z,99.90
2019-05-13T02:59:12.986Z,99.90
2019-05-13T03:01:16.731Z,99.90
2019-05-13T03:03:23.127Z,99.90
2019-05-13T03:05:31.904Z,99.90
2019-05-13T03:07:35.618Z,99.90
2019-05-13T03:09:42.287Z,99.90
2019-05-13T03:11:49.006Z,99.90
2019-05-13T03:14:03.350Z,99.90
2019-05-13T03:16:23.303Z,99.90
2019-05-13T03:18:28.969Z,99.90
2019-05-13T03:20:37.427Z,99.90
2019-05-13T03:22:46.903Z,99.90
2019-05-13T03:24:55.192Z,99.90
2019-05-13T03:27:07.472Z,99.90
2019-05-13T03:29:13.310Z,99.90
2019-05-13T03:31:25.666Z,99.90
2019-05-13T03:33:28.829Z,99.90
2019-05-13T03:35:38.153Z,99.90
2019-05-13T03:37:43.913Z,99.90
2019-05-13T03:39:52.362Z,99.90
2019-05-13T03:42:02.938Z,99.90
2019-05-13T03:44:13.434Z,99.90
2019-05-13T03:46:22.778Z,99.90
2019-05-13T03:48:28.200Z,99.90
2019-05-13T03:50:35.030Z,99.90
2019-05-13T03:52:43.144Z,99.90
2019-05-13T03:54:48.480Z,99.90
2019-05-13T03:56:54.166Z,99.90
2019-05-13T03:59:02.492Z,99.90
2019-05-13T04:01:06.838Z,99.90
2019-05-13T04:03:13.646Z,99.90
2019-05-13T04:05:23.011Z,99.90
2019-05-13T04:07:28.614Z,99.90
2019-05-13T04:09:36.560Z,99.90
2019-05-13T04:11:42.367Z,99.90
2019-05-13T04:13:47.880Z,99.90
2019-05-13T04:15:53.284Z,99.90
2019-05-13T04:18:02.367Z,99.90
2019-05-13T04:20:06.509Z,99.90
2019-05-13T04:22:12.923Z,99.90
2019-05-13T04:24:18.420Z,99.90
2019-05-13T04:26:23.983Z,99.90
2019-05-13T04:28:33.069Z,99.90
2019-05-13T04:30:37.518Z,99.90
2019-05-13T04:32:44.204Z,99.90
2019-05-13T04:34:52.945Z,99.90
2019-05-13T04:36:58.167Z,99.90
2019-05-13T04:39:06.148Z,99.90
2019-05-13T04:41:12.180Z,99.90
2019-05-13T04:43:18.331Z,99.90
2019-05-13T04:45:24.271Z,99.90
2019-05-13T04:47:33.014Z,99.90
2019-05-13T04:49:35.845Z,99.90
2019-05-13T04:51:42.078Z,99.90
2019-05-13T04:53:47.165Z,99.90
2019-05-13T04:55:52.996Z,99.90
2019-05-13T04:57:58.470Z,99.90
2019-05-13T05:00:04.387Z,99.90
2019-05-13T05:02:46.097Z,99.90
2019-05-13T05:04:59.266Z,99.90
2019-05-13T05:07:14.924Z,99.90
2019-05-13T05:10:15.486Z,99.90
2019-05-13T05:12:58.399Z,99.90
2019-05-13T05:15:53.025Z,99.90
2019-05-13T05:18:34.681Z,99.90
2019-05-13T05:21:03.317Z,99.90
2019-05-13T05:23:52.215Z,99.90
2019-05-13T05:26:11.600Z,99.90
2019-05-13T05:28:53.855Z,99.90
2019-05-13T05:31:19.335Z,99.90
2019-05-13T05:34:05.706Z,99.90
2019-05-13T05:36:35.366Z,99.90
2019-05-13T05:39:22.695Z,99.90
2019-05-13T05:41:31.716Z,99.90
2019-05-13T05:43:45.181Z,99.90
2019-05-13T05:45:51.166Z,99.90
2019-05-13T05:47:58.233Z,99.90
2019-05-13T05:50:04.165Z,99.90
2019-05-13T05:52:12.283Z,99.90
2019-05-13T05:54:18.569Z,99.90
2019-05-13T05:56:24.932Z,99.90
2019-05-13T05:58:31.530Z,99.90
2019-05-13T06:00:41.629Z,99.90
2019-05-13T06:02:49.215Z,99.90
2019-05-13T06:04:54.970Z,99.90
2019-05-13T06:07:03.199Z,99.90
2019-05-13T06:09:09.410Z,99.90
2019-05-13T06:11:14.983Z,99.90
2019-05-13T06:13:21.450Z,99.90
2019-05-13T06:15:27.072Z,99.90
2019-05-13T06:17:33.151Z,99.90
2019-05-13T06:19:38.685Z,99.90
2019-05-13T06:21:44.557Z,99.90
2019-05-13T06:23:51.930Z,99.90
2019-05-13T06:25:57.330Z,99.90
2019-05-13T06:28:02.519Z,99.90
2019-05-13T06:30:07.924Z,99.90
2019-05-13T06:32:22.051Z,99.90
2019-05-13T06:34:21.522Z,99.90
2019-05-13T06:36:27.529Z,99.90
2019-05-13T06:38:32.832Z,99.90
2019-05-13T06:40:42.212Z,99.90
2019-05-13T06:42:46.807Z,99.90
2019-05-13T06:44:51.977Z,99.90
2019-05-13T06:46:57.608Z,99.90
2019-05-13T06:49:03.044Z,99.90
2019-05-13T06:51:08.452Z,99.80
2019-05-13T06:53:14.018Z,98.80
2019-05-13T06:55:21.257Z,98.60
2019-05-13T06:57:26.176Z,99.00
2019-05-13T06:59:31.899Z,98.50
2019-05-13T07:01:37.368Z,98.20
2019-05-13T07:03:42.673Z,98.50
2019-05-13T07:05:47.899Z,97.40
2019-05-13T07:07:53.793Z,97.40
2019-05-13T07:10:02.282Z,97.50
2019-05-13T07:12:06.179Z,96.80
2019-05-13T07:14:12.908Z,96.20
2019-05-13T07:16:18.226Z,96.00
2019-05-13T07:18:23.305Z,96.20
2019-05-13T07:20:28.689Z,94.80
2019-05-13T07:22:34.223Z,94.00
2019-05-13T07:24:41.479Z,93.70
2019-05-13T07:26:46.862Z,93.40
2019-05-13T07:28:52.995Z,93.20
2019-05-13T07:30:58.410Z,92.70
2019-05-13T07:33:04.154Z,92.30
2019-05-13T07:35:14.210Z,91.00
2019-05-13T07:37:18.457Z,92.00
2019-05-13T07:39:24.436Z,91.00
2019-05-13T07:41:36.498Z,90.60
2019-05-13T07:43:36.912Z,90.50
2019-05-13T07:45:42.619Z,90.00
2019-05-13T07:47:48.282Z,89.10
2019-05-13T07:49:55.102Z,88.80
2019-05-13T07:52:01.542Z,89.00
2019-05-13T07:54:07.684Z,88.90
2019-05-13T07:56:12.806Z,88.70
2019-05-13T07:58:18.396Z,89.30
2019-05-13T08:00:25.415Z,87.20
2019-05-13T08:02:31.990Z,84.40
2019-05-13T08:04:37.627Z,85.80
2019-05-13T08:06:42.809Z,84.20
2019-05-13T08:08:52.105Z,81.60
2019-05-13T08:10:56.558Z,75.90
2019-05-13T08:13:02.385Z,79.60
2019-05-13T08:15:11.740Z,79.70
2019-05-13T08:17:16.091Z,77.70
2019-05-13T08:19:21.893Z,80.80
2019-05-13T08:21:27.940Z,76.60
2019-05-13T08:23:33.015Z,76.10
2019-05-13T08:25:38.029Z,78.80
2019-05-13T08:27:44.228Z,78.50
2019-05-13T08:29:52.166Z,75.40
2019-05-13T08:31:57.728Z,75.70
2019-05-13T08:34:03.036Z,77.30
2019-05-13T08:36:08.601Z,75.30
2019-05-13T08:38:13.722Z,78.70
2019-05-13T08:40:21.147Z,78.60
2019-05-13T08:42:26.919Z,77.30
2019-05-13T08:44:32.491Z,80.20
2019-05-13T08:46:37.894Z,80.70
2019-05-13T08:48:43.042Z,76.80
2019-05-13T08:50:48.946Z,77.20
2019-05-13T08:52:54.326Z,79.20
2019-05-13T08:55:01.427Z,76.90
2019-05-13T08:57:06.781Z,77.20
2019-05-13T08:59:11.951Z,76.80
2019-05-13T09:01:17.379Z,76.90
2019-05-13T09:03:23.032Z,75.80
2019-05-13T09:05:28.216Z,76.10
2019-05-13T09:07:33.602Z,77.90
2019-05-13T09:09:41.765Z,75.90
2019-05-13T09:11:46.426Z,75.90
2019-05-13T09:13:51.675Z,75.60
2019-05-13T09:15:57.118Z,74.30
2019-05-13T09:18:02.822Z,73.70
2019-05-13T09:20:08.257Z,71.50
2019-05-13T09:22:13.736Z,72.70
2019-05-13T09:24:30.509Z,71.40
2019-05-13T09:26:28.506Z,67.50
2019-05-13T09:28:33.875Z,67.50
2019-05-13T09:30:42.173Z,71.30
2019-05-13T09:32:47.933Z,68.30
2019-05-13T09:34:54.302Z,64.80
2019-05-13T09:37:02.697Z,62.00
2019-05-13T09:39:08.456Z,63.50
2019-05-13T09:41:13.583Z,58.80
2019-05-13T09:43:18.853Z,59.20
2019-05-13T09:45:23.981Z,63.00
2019-05-13T09:47:29.171Z,59.00
2019-05-13T09:49:34.382Z,59.50
2019-05-13T09:51:41.669Z,60.50
2019-05-13T09:53:46.799Z,61.40
2019-05-13T09:55:52.988Z,58.00
2019-05-13T09:57:58.070Z,59.70
2019-05-13T10:00:03.107Z,57.40
2019-05-13T10:02:08.232Z,55.20
2019-05-13T10:04:13.519Z,55.60
2019-05-13T10:06:18.696Z,54.30
2019-05-13T10:08:24.342Z,54.50
2019-05-13T10:10:31.588Z,55.10
2019-05-13T10:12:36.688Z,54.40
2019-05-13T10:14:41.822Z,53.00
2019-05-13T10:16:47.020Z,52.90
2019-05-13T10:18:52.637Z,54.90
2019-05-13T10:20:59.181Z,53.50
2019-05-13T10:23:04.510Z,54.60
2019-05-13T10:25:12.117Z,54.00
2019-05-13T10:27:19.023Z,54.60
2019-05-13T10:29:25.109Z,51.30
2019-05-13T10:31:31.392Z,52.40
2019-05-13T10:33:37.466Z,50.00
2019-05-13T10:35:43.845Z,49.70
2019-05-13T10:37:49.099Z,48.80
2019-05-13T10:39:56.312Z,48.70
2019-05-13T10:42:03.705Z,52.40
2019-05-13T10:44:11.888Z,49.90
2019-05-13T10:46:15.459Z,51.90
2019-05-13T10:48:22.094Z,52.10
2019-05-13T10:50:27.883Z,48.90
2019-05-13T10:52:33.238Z,47.70
2019-05-13T10:54:38.329Z,49.40
2019-05-13T10:56:43.365Z,48.00
2019-05-13T10:58:48.635Z,47.20
2019-05-13T11:00:55.272Z,47.20
2019-05-13T11:03:00.936Z,47.90
2019-05-13T11:05:06.630Z,47.20
2019-05-13T11:07:12.167Z,46.40
2019-05-13T11:09:17.604Z,48.70
2019-05-13T11:11:22.818Z,50.20
2019-05-13T11:13:47.846Z,48.20
2019-05-13T11:15:40.681Z,48.80
2019-05-13T11:17:42.807Z,48.70
2019-05-13T11:19:47.820Z,51.10
2019-05-13T11:21:53.248Z,51.90
2019-05-13T11:23:58.390Z,54.00
2019-05-13T11:26:03.534Z,53.70
2019-05-13T11:28:08.636Z,52.70
2019-05-13T11:30:14.470Z,52.90
2019-05-13T11:32:21.596Z,52.50
2019-05-13T11:34:26.272Z,50.60
2019-05-13T11:36:33.279Z,50.20
2019-05-13T11:38:38.023Z,49.70
2019-05-13T11:40:43.035Z,49.00
2019-05-13T11:42:48.507Z,49.00
2019-05-13T11:44:53.747Z,47.00
2019-05-13T11:47:02.412Z,49.50
2019-05-13T11:49:06.787Z,48.90
2019-05-13T11:51:13.134Z,50.50
2019-05-13T11:53:37.155Z,49.60
2019-05-13T11:55:25.212Z,46.10
2019-05-13T11:57:31.573Z,45.70
2019-05-13T11:59:36.585Z,45.10
2019-05-13T12:01:42.595Z,48.00
2019-05-13T12:03:47.869Z,49.90
2019-05-13T12:05:53.733Z,45.30
2019-05-13T12:07:59.307Z,46.10
2019-05-13T12:10:04.636Z,47.00
2019-05-13T12:12:13.215Z,45.10
2019-05-13T12:14:42.484Z,45.80
2019-05-13T12:16:23.803Z,46.40
2019-05-13T12:18:28.794Z,44.50
2019-05-13T12:20:33.928Z,45.10
2019-05-13T12:22:39.054Z,45.10
2019-05-13T12:24:44.270Z,45.40
2019-05-13T12:26:52.853Z,44.70
2019-05-13T12:28:56.485Z,44.80
2019-05-13T12:31:03.309Z,43.60
2019-05-13T12:33:08.197Z,43.60
2019-05-13T12:35:13.712Z,42.60
2019-05-13T12:37:21.993Z,42.00
2019-05-13T12:39:26.112Z,44.50
2019-05-13T12:41:32.940Z,45.10
2019-05-13T12:43:38.465Z,42.10
2019-05-13T12:45:44.033Z,41.20
2019-05-13T12:47:49.260Z,43.60
2019-05-13T12:49:54.751Z,42.70
2019-05-13T12:54:06.103Z,42.30
2019-05-13T12:56:12.583Z,43.00
2019-05-13T12:58:17.760Z,41.50
2019-05-13T13:00:24.281Z,41.70
2019-05-13T13:02:32.354Z,42.90
2019-05-13T13:04:35.960Z,43.30
2019-05-13T13:06:45.105Z,43.10
2019-05-13T13:08:49.899Z,41.50
2019-05-13T13:10:55.271Z,40.80
2019-05-13T13:13:02.153Z,38.80
2019-05-13T13:15:32.866Z,40.60
2019-05-13T13:17:15.033Z,41.90
2019-05-13T13:19:22.034Z,41.70
2019-05-13T13:21:33.555Z,38.40
2019-05-13T13:23:34.058Z,42.70
2019-05-13T13:25:43.444Z,39.40
2019-05-13T13:28:08.969Z,39.50
2019-05-13T13:30:02.778Z,39.50
2019-05-13T13:32:02.729Z,37.40
2019-05-13T13:34:13.556Z,38.40
2019-05-13T13:36:16.415Z,37.10
2019-05-13T13:38:25.185Z,38.80
2019-05-13T13:40:33.454Z,41.10
2019-05-13T13:42:35.518Z,38.80
2019-05-13T13:44:42.881Z,38.20
2019-05-13T13:46:50.769Z,38.00
2019-05-13T13:48:55.777Z,38.60
2019-05-13T13:51:04.068Z,40.00
2019-05-13T13:53:13.501Z,38.90
2019-05-13T13:55:16.157Z,37.30
2019-05-13T13:57:25.573Z,37.40
2019-05-13T13:59:27.874Z,38.40
2019-05-13T14:01:33.720Z,37.40
2019-05-13T14:03:39.014Z,38.60
2019-05-13T14:05:44.830Z,37.60
2019-05-13T14:06:33.330Z,43.40
2019-05-13T14:07:52.034Z,38.00
2019-05-13T14:09:56.735Z,37.50
2019-05-13T14:12:02.388Z,37.50
2019-05-13T14:14:07.559Z,38.80
2019-05-13T14:16:24.681Z,38.70
2019-05-13T14:18:25.770Z,37.60
2019-05-13T14:20:26.653Z,37.00
2019-05-13T14:22:32.390Z,37.90
2019-05-13T14:24:37.589Z,38.20
2019-05-13T14:26:43.623Z,38.20
2019-05-13T14:28:53.541Z,36.10
2019-05-13T14:30:57.419Z,38.50
2019-05-13T14:33:02.623Z,37.90
2019-05-13T14:35:09.072Z,38.60
2019-05-13T14:37:15.239Z,39.60
2019-05-13T14:39:22.219Z,40.00
2019-05-13T14:41:27.348Z,39.10
2019-05-13T14:43:32.440Z,38.70
2019-05-13T14:45:37.752Z,39.00
2019-05-13T14:47:42.902Z,38.80
2019-05-13T14:49:48.230Z,39.20
2019-05-13T14:51:56.240Z,36.30
2019-05-13T14:53:59.526Z,37.40
2019-05-13T14:56:04.527Z,38.80
2019-05-13T14:58:09.481Z,38.30
2019-05-13T15:00:14.738Z,40.50
2019-05-13T15:02:19.585Z,39.60
2019-05-13T15:04:25.154Z,40.60
2019-05-13T15:06:33.851Z,40.20
2019-05-13T15:08:41.984Z,39.10
2019-05-13T15:10:45.973Z,39.30
2019-05-13T15:12:52.352Z,38.30
2019-05-13T15:14:58.225Z,39.80
2019-05-13T15:17:07.297Z,39.20
2019-05-13T15:19:12.032Z,39.90
2019-05-13T15:21:17.338Z,39.00
2019-05-13T15:23:22.863Z,39.30
2019-05-13T15:25:28.404Z,38.50
2019-05-13T15:27:33.495Z,39.60
2019-05-13T15:29:38.493Z,40.60
2019-05-13T15:31:43.931Z,41.40
2019-05-13T15:33:49.051Z,41.50
2019-05-13T15:35:54.099Z,40.20
2019-05-13T15:38:01.343Z,40.20
2019-05-13T15:40:06.869Z,40.80
2019-05-13T15:42:12.344Z,42.20
2019-05-13T15:44:17.961Z,41.00
2019-05-13T15:46:23.125Z,41.70
2019-05-13T15:48:28.652Z,40.40
2019-05-13T15:50:33.960Z,42.40
2019-05-13T15:52:39.273Z,42.80
2019-05-13T15:54:44.794Z,40.70
2019-05-13T15:56:49.811Z,41.40
2019-05-13T15:58:54.751Z,42.10
2019-05-13T16:01:29.375Z,42.00
2019-05-13T16:03:35.057Z,38.80
2019-05-13T16:05:42.205Z,40.40
2019-05-13T16:07:47.297Z,40.70
2019-05-13T16:09:52.874Z,39.70
2019-05-13T16:11:58.572Z,41.00
2019-05-13T16:14:03.820Z,39.10
2019-05-13T16:16:09.788Z,39.20
2019-05-13T16:18:16.091Z,40.80
2019-05-13T16:20:21.498Z,41.00
2019-05-13T16:22:27.014Z,40.80
2019-05-13T16:24:32.239Z,40.90
2019-05-13T16:26:37.839Z,40.90
2019-05-13T16:28:42.897Z,39.30
2019-05-13T16:30:48.182Z,40.00
2019-05-13T16:32:53.987Z,41.30
2019-05-13T16:34:59.320Z,40.80
2019-05-13T16:37:04.498Z,40.50
2019-05-13T16:39:12.130Z,41.20
2019-05-13T16:41:16.234Z,42.10
2019-05-13T16:43:22.211Z,41.60
2019-05-13T16:45:27.533Z,43.40
2019-05-13T16:47:32.657Z,43.50
2019-05-13T16:49:37.552Z,43.80
2019-05-13T16:51:42.902Z,43.40
2019-05-13T16:53:48.234Z,43.70
2019-05-13T16:55:53.611Z,43.10
2019-05-13T16:57:58.781Z,42.20
2019-05-13T17:00:03.796Z,42.40
2019-05-13T17:02:08.579Z,43.20
2019-05-13T17:04:14.083Z,42.80
2019-05-13T17:06:21.444Z,42.70
2019-05-13T17:08:26.226Z,42.90
2019-05-13T17:10:31.694Z,43.20
2019-05-13T17:12:36.674Z,42.60
2019-05-13T17:14:41.706Z,42.90
2019-05-13T17:16:46.839Z,43.50
2019-05-13T17:18:52.166Z,44.20
2019-05-13T17:20:57.080Z,43.40
2019-05-13T17:23:02.399Z,43.80
2019-05-13T17:25:08.281Z,43.80
2019-05-13T17:27:13.883Z,43.60
2019-05-13T17:29:21.051Z,44.20
2019-05-13T17:31:25.827Z,43.60
2019-05-13T17:33:31.927Z,44.40
2019-05-13T17:35:37.134Z,43.20
2019-05-13T17:37:42.404Z,43.70
2019-05-13T17:39:47.353Z,44.20
2019-05-13T17:41:52.498Z,44.70
2019-05-13T17:43:57.498Z,45.10
2019-05-13T17:46:02.963Z,44.80
2019-05-13T17:48:23.309Z,44.90
2019-05-13T17:50:15.492Z,43.90
2019-05-13T17:52:22.064Z,43.80
2019-05-13T17:54:27.224Z,44.60
2019-05-13T17:56:32.631Z,44.70
2019-05-13T17:58:37.763Z,45.50
2019-05-13T18:00:44.327Z,45.60
2019-05-13T18:02:51.411Z,45.50
2019-05-13T18:04:56.744Z,45.60
2019-05-13T18:07:01.912Z,45.90
2019-05-13T18:09:08.377Z,46.40
2019-05-13T18:11:13.644Z,45.70
2019-05-13T18:13:18.539Z,46.10
2019-05-13T18:15:23.350Z,46.90
2019-05-13T18:17:31.169Z,46.50
2019-05-13T18:19:36.255Z,47.10
2019-05-13T18:21:42.503Z,47.20
2019-05-13T18:23:47.784Z,47.00
2019-05-13T18:25:53.248Z,47.40
2019-05-13T18:27:58.503Z,46.90
2019-05-13T18:30:03.803Z,47.80
2019-05-13T18:32:08.722Z,47.60
2019-05-13T18:34:13.647Z,47.50
2019-05-13T18:36:18.517Z,47.70
2019-05-13T18:38:23.387Z,48.20
2019-05-13T18:40:28.163Z,48.70
2019-05-13T18:42:33.074Z,48.10
2019-05-13T18:44:38.272Z,48.60
2019-05-13T18:46:43.309Z,48.80
2019-05-13T18:48:58.781Z,49.80
2019-05-13T18:50:54.930Z,49.50
2019-05-13T18:53:01.801Z,49.50
2019-05-13T18:55:06.945Z,49.50
2019-05-13T18:57:12.332Z,49.90
2019-05-13T18:59:18.574Z,49.80
2019-05-13T19:01:23.352Z,50.10
2019-05-13T19:03:28.293Z,50.00
2019-05-13T19:05:33.160Z,50.40
2019-05-13T19:07:37.945Z,50.20
2019-05-13T19:09:42.722Z,50.30
2019-05-13T19:11:47.620Z,50.30
2019-05-13T19:13:53.463Z,51.00
2019-05-13T19:15:58.326Z,50.80
2019-05-13T19:18:03.448Z,51.00
2019-05-13T19:20:08.759Z,51.40
2019-05-13T19:22:13.740Z,51.30
2019-05-13T19:24:21.728Z,51.60
2019-05-13T19:26:26.573Z,51.70
2019-05-13T19:28:32.037Z,52.40
2019-05-13T19:30:36.869Z,52.20
2019-05-13T19:32:41.924Z,52.10
2019-05-13T19:34:47.802Z,52.30
2019-05-13T19:36:53.089Z,52.40
2019-05-13T19:39:01.680Z,52.50
2019-05-13T19:41:06.122Z,52.60
2019-05-13T19:43:11.772Z,52.60
2019-05-13T19:45:17.467Z,53.00
2019-05-13T19:47:22.723Z,53.50
2019-05-13T19:49:32.979Z,54.20
2019-05-13T19:51:34.957Z,53.60
2019-05-13T19:53:41.461Z,53.80
2019-05-13T19:55:46.408Z,54.20
2019-05-13T19:57:51.711Z,54.10
2019-05-13T19:59:56.627Z,54.50
2019-05-13T20:02:01.982Z,54.30
2019-05-13T20:04:08.560Z,54.60
2019-05-13T20:06:14.084Z,54.40
2019-05-13T20:08:22.353Z,54.80
2019-05-13T20:10:28.845Z,55.30
2019-05-13T20:12:35.023Z,55.20
2019-05-13T20:14:40.571Z,55.20
2019-05-13T20:16:52.445Z,55.10
2019-05-13T20:19:01.269Z,55.20
2019-05-13T20:21:10.201Z,55.40
2019-05-13T20:23:15.114Z,55.70
2019-05-13T20:25:21.798Z,55.90
2019-05-13T20:27:28.057Z,56.40
2019-05-13T20:29:35.214Z,56.10
2019-05-13T20:31:42.208Z,56.30
2019-05-13T20:33:48.053Z,56.30
2019-05-13T20:35:54.201Z,56.30
2019-05-13T20:38:02.035Z,56.50
2019-05-13T20:40:07.040Z,56.60
2019-05-13T20:42:12.582Z,56.90
2019-05-13T20:44:18.099Z,56.50
2019-05-13T20:46:27.783Z,57.40
2019-05-13T20:48:34.127Z,56.40
2019-05-13T20:50:41.285Z,56.50
2019-05-13T20:52:46.811Z,56.10
2019-05-13T20:54:52.497Z,55.90
2019-05-13T20:56:58.669Z,56.60
2019-05-13T20:59:03.865Z,56.30
2019-05-13T21:01:11.073Z,56.50
2019-05-13T21:03:16.050Z,56.70
2019-05-13T21:05:21.873Z,56.20
2019-05-13T21:07:27.507Z,55.90
2019-05-13T21:09:32.496Z,56.10
2019-05-13T21:11:37.757Z,55.60
2019-05-13T21:13:43.000Z,55.40
2019-05-13T21:15:48.507Z,55.50
2019-05-13T21:17:53.702Z,55.60
2019-05-13T21:20:08.538Z,55.30
2019-05-13T21:22:06.384Z,55.40
2019-05-13T21:24:12.298Z,55.50
2019-05-13T21:26:17.554Z,56.00
2019-05-13T21:28:22.663Z,56.00
2019-05-13T21:30:27.856Z,56.30
2019-05-13T21:32:33.524Z,55.50
2019-05-13T21:34:39.156Z,55.40
2019-05-13T21:36:44.253Z,55.50
2019-05-13T21:38:49.351Z,54.70
2019-05-13T21:40:54.509Z,54.80
2019-05-13T21:42:59.713Z,54.80
2019-05-13T21:45:04.927Z,55.10
2019-05-13T21:47:11.399Z,55.40
2019-05-13T21:49:18.034Z,55.20
2019-05-13T21:51:23.187Z,55.10
2019-05-13T21:53:32.619Z,54.90
2019-05-13T21:55:37.882Z,54.90
2019-05-13T21:57:43.824Z,54.10
2019-05-13T21:59:51.430Z,53.90
2019-05-13T22:01:55.689Z,54.00
2019-05-13T22:04:01.722Z,54.20
2019-05-13T22:06:07.235Z,53.70
2019-05-13T22:08:12.868Z,53.80
2019-05-13T22:10:18.143Z,53.70
2019-05-13T22:12:23.188Z,53.70
2019-05-13T22:14:28.446Z,54.00
2019-05-13T22:16:36.305Z,53.90
2019-05-13T22:18:42.742Z,54.30
2019-05-13T22:20:51.221Z,53.90
2019-05-13T22:22:55.711Z,54.10
2019-05-13T22:25:01.954Z,55.20
2019-05-13T22:27:10.253Z,54.60
2019-05-13T22:29:14.130Z,54.40
2019-05-13T22:31:25.641Z,54.90
2019-05-13T22:33:32.445Z,55.40
2019-05-13T22:35:37.820Z,55.10
2019-05-13T22:37:42.934Z,56.00
2019-05-13T22:39:48.318Z,55.40
2019-05-13T22:41:53.534Z,55.60
2019-05-13T22:43:59.187Z,55.80
2019-05-13T22:46:04.533Z,55.90
2019-05-13T22:48:12.030Z,56.10
2019-05-13T22:50:16.884Z,56.10
2019-05-13T22:52:22.116Z,56.60
2019-05-13T22:54:27.280Z,56.90
2019-05-13T22:56:32.688Z,56.70
2019-05-13T22:58:37.834Z,56.90
2019-05-13T23:00:43.394Z,56.80
2019-05-13T23:02:48.776Z,56.90
2019-05-13T23:04:53.856Z,57.80
2019-05-13T23:07:01.281Z,57.10
2019-05-13T23:09:07.112Z,57.20
2019-05-13T23:11:12.550Z,57.30
2019-05-13T23:13:17.944Z,57.40
2019-05-13T23:15:23.196Z,57.30
2019-05-13T23:17:28.355Z,57.50
2019-05-13T23:19:33.459Z,57.60
2019-05-13T23:21:39.021Z,58.00
2019-05-13T23:23:44.239Z,58.50
2019-05-13T23:25:49.686Z,58.40
2019-05-13T23:27:54.988Z,59.00
2019-05-13T23:30:01.188Z,59.00
2019-05-13T23:32:06.926Z,59.10
2019-05-13T23:34:12.233Z,59.50
2019-05-13T23:36:18.031Z,59.60
2019-05-13T23:38:23.633Z,59.50
2019-05-13T23:40:28.885Z,59.90
2019-05-13T23:42:34.332Z,60.00
2019-05-13T23:44:41.477Z,59.90
2019-05-13T23:46:46.483Z,60.60
2019-05-13T23:48:52.023Z,60.90
2019-05-13T23:50:57.163Z,60.90
2019-05-13T23:53:02.338Z,61.10
2019-05-13T23:55:08.087Z,61.00
2019-05-13T23:57:13.215Z,61.40
2019-05-13T23:59:18.284Z,61.90
